Time;durP1;ratioP1;P1;durP2;ratioP2;P2;SDS_P1;SDS_P2;PMS_P1;PMS_P2;Temp;Humidity;BMP_temperature;BMP_pressure;BME280_temperature;BME280_humidity;BME280_pressure;Samples;Min_cycle;Max_cycle;Signal;HPM_P1;HPM_P2
2023/05/31 00:00:20;;;;;;;;;;;17.00;71.80;;;;;;5023013;28;19912;-71
2023/05/31 00:02:46;;;;;;;;;;;17.00;71.90;;;;;;5052150;28;19927;-72
2023/05/31 00:05:11;;;;;;;;;;;17.00;72.10;;;;;;5026537;28;19914;-71
2023/05/31 00:07:37;;;;;;;;;;;17.00;71.90;;;;;;4988441;28;19910;-71
2023/05/31 00:10:02;;;;;;;;;;;16.90;72.00;;;;;;5004851;28;19921;-71
2023/05/31 00:12:28;;;;;;;;;;;16.90;72.20;;;;;;4988375;28;19920;-71
2023/05/31 00:14:53;;;;;;;;;;;16.90;72.10;;;;;;4988086;28;19921;-71
2023/05/31 00:17:19;;;;;;;;;;;16.80;72.30;;;;;;4988324;28;20290;-71
2023/05/31 00:19:44;;;;;;;;;;;16.80;71.90;;;;;;4987373;28;19960;-71
2023/05/31 00:22:10;;;;;;;;;;;16.80;72.50;;;;;;4988160;28;20008;-72
2023/05/31 00:24:36;;;;;;;;;;;16.80;72.30;;;;;;4986823;28;19970;-71
2023/05/31 00:27:01;;;;;;;;;;;16.70;72.40;;;;;;4988160;28;19914;-71
2023/05/31 00:29:28;;;;;;;;;;;16.70;72.50;;;;;;4991145;28;20370;-72
2023/05/31 00:31:54;;;;;;;;;;;16.70;72.40;;;;;;5046164;28;19916;-71
2023/05/31 00:34:19;;;;;;;;;;;16.60;72.30;;;;;;5088900;28;20257;-71
2023/05/31 00:36:45;;;;;;;;;;;16.60;72.50;;;;;;5084397;28;19913;-71
2023/05/31 00:39:10;;;;;;;;;;;16.60;72.50;;;;;;4987725;28;20269;-71
2023/05/31 00:41:36;;;;;;;;;;;16.60;72.70;;;;;;4987940;28;19925;-72
2023/05/31 00:44:01;;;;;;;;;;;16.50;72.50;;;;;;4986131;28;19987;-71
2023/05/31 00:46:37;;;;;;;;;;;16.50;72.60;;;;;;4986435;28;19913;-71
2023/05/31 00:49:03;;;;;;;;;;;16.50;72.80;;;;;;4987495;28;19918;-71
2023/05/31 00:51:30;;;;;;;;;;;16.50;72.90;;;;;;4987789;28;19921;-72
2023/05/31 00:53:56;;;;;;;;;;;16.40;72.60;;;;;;4986277;28;20547;-71
2023/05/31 00:56:22;;;;;;;;;;;16.40;72.80;;;;;;4987775;28;19914;-71
2023/05/31 00:58:48;;;;;;;;;;;16.40;72.60;;;;;;4983065;28;19914;-71
2023/05/31 01:01:14;;;;;;;;;;;16.40;72.90;;;;;;5026180;28;20393;-71
2023/05/31 01:03:42;;;;;;;;;;;16.30;73.10;;;;;;5088825;28;19916;-71
2023/05/31 01:06:08;;;;;;;;;;;16.30;72.90;;;;;;4968344;28;19910;-71
2023/05/31 01:08:34;;;;;;;;;;;16.30;72.70;;;;;;4983508;28;19918;-71
2023/05/31 01:11:05;;;;;;;;;;;16.20;72.60;;;;;;4987215;28;19949;-72
2023/05/31 01:13:31;;;;;;;;;;;16.20;73.00;;;;;;4987243;28;19914;-71
2023/05/31 01:16:08;;;;;;;;;;;16.20;73.10;;;;;;4987642;28;19921;-71
2023/05/31 01:18:55;;;;;;;;;;;16.20;73.00;;;;;;4987257;28;19939;-71
2023/05/31 01:21:26;;;;;;;;;;;16.10;73.00;;;;;;4986092;28;19952;-72
2023/05/31 01:23:55;;;;;;;;;;;16.10;73.10;;;;;;4987004;28;19921;-71
2023/05/31 01:26:35;;;;;;;;;;;16.10;73.20;;;;;;4987433;28;19910;-71
2023/05/31 01:29:03;;;;;;;;;;;16.00;72.90;;;;;;4981963;28;19964;-72
2023/05/31 01:31:30;;;;;;;;;;;16.00;73.30;;;;;;5036976;28;20579;-71
2023/05/31 01:33:55;;;;;;;;;;;16.00;73.20;;;;;;4991361;28;19921;-71
2023/05/31 01:36:21;;;;;;;;;;;16.00;73.50;;;;;;4987140;28;20371;-71
2023/05/31 01:38:46;;;;;;;;;;;16.00;73.20;;;;;;4987023;28;20397;-71
2023/05/31 01:41:12;;;;;;;;;;;15.90;73.10;;;;;;4987270;28;19910;-71
2023/05/31 01:43:40;;;;;;;;;;;15.90;73.30;;;;;;4985545;28;19910;-71
2023/05/31 01:46:06;;;;;;;;;;;15.90;73.30;;;;;;4987154;28;19966;-71
2023/05/31 01:48:32;;;;;;;;;;;15.90;73.40;;;;;;4986922;28;19914;-71
2023/05/31 01:50:58;;;;;;;;;;;15.80;73.20;;;;;;4987118;28;19924;-71
2023/05/31 01:53:25;;;;;;;;;;;15.80;73.30;;;;;;4985327;28;19913;-71
2023/05/31 01:55:51;;;;;;;;;;;15.80;73.50;;;;;;4985803;28;19955;-71
2023/05/31 01:58:17;;;;;;;;;;;15.80;73.50;;;;;;4987127;28;19917;-71
2023/05/31 02:00:42;;;;;;;;;;;15.70;73.30;;;;;;5021239;28;19945;-71
2023/05/31 02:03:08;;;;;;;;;;;15.70;73.50;;;;;;5064265;28;19954;-72
2023/05/31 02:05:33;;;;;;;;;;;15.70;73.70;;;;;;5017305;28;19965;-72
2023/05/31 02:07:59;;;;;;;;;;;15.70;73.80;;;;;;5032289;28;19935;-71
2023/05/31 02:10:24;;;;;;;;;;;15.70;73.80;;;;;;4986319;28;20369;-71
2023/05/31 02:12:50;;;;;;;;;;;15.70;74.00;;;;;;4986225;28;19921;-71
2023/05/31 02:15:19;;;;;;;;;;;15.60;73.90;;;;;;4986735;28;19914;-71
2023/05/31 02:17:45;;;;;;;;;;;15.60;73.70;;;;;;4985560;28;19909;-72
2023/05/31 02:20:12;;;;;;;;;;;15.60;74.00;;;;;;4986639;28;19914;-70
2023/05/31 02:22:41;;;;;;;;;;;15.50;73.80;;;;;;4986531;28;20440;-71
2023/05/31 02:25:10;;;;;;;;;;;15.60;74.00;;;;;;4986226;28;19921;-72
2023/05/31 02:27:35;;;;;;;;;;;15.50;74.00;;;;;;4986541;28;19953;-71
2023/05/31 02:30:02;;;;;;;;;;;15.50;74.00;;;;;;5017515;28;19958;-71
2023/05/31 02:32:27;;;;;;;;;;;15.50;74.10;;;;;;5045716;28;19912;-71
2023/05/31 02:34:53;;;;;;;;;;;15.40;74.10;;;;;;5088547;28;19920;-71
2023/05/31 02:37:18;;;;;;;;;;;15.50;74.20;;;;;;5060455;28;19910;-71
2023/05/31 02:39:44;;;;;;;;;;;15.40;74.40;;;;;;4986215;28;20361;-71
2023/05/31 02:42:09;;;;;;;;;;;15.40;74.30;;;;;;4986069;28;19914;-71
2023/05/31 02:44:35;;;;;;;;;;;15.40;74.30;;;;;;4985733;28;19990;-71
2023/05/31 02:47:00;;;;;;;;;;;15.30;74.10;;;;;;4986358;28;19914;-71
2023/05/31 02:49:26;;;;;;;;;;;15.30;74.20;;;;;;4985960;28;19959;-71
2023/05/31 02:51:51;;;;;;;;;;;15.30;74.40;;;;;;4984861;28;20843;-71
2023/05/31 02:54:17;;;;;;;;;;;15.30;74.50;;;;;;4985900;28;20320;-71
2023/05/31 02:56:42;;;;;;;;;;;15.20;74.40;;;;;;4986163;28;20337;-71
2023/05/31 02:59:08;;;;;;;;;;;15.20;74.40;;;;;;4984734;28;20002;-71
2023/05/31 03:01:33;;;;;;;;;;;15.20;74.70;;;;;;5008735;28;19914;-71
2023/05/31 03:03:59;;;;;;;;;;;15.20;74.40;;;;;;5073732;28;19912;-71
2023/05/31 03:06:24;;;;;;;;;;;15.20;74.80;;;;;;4985980;28;19910;-71
2023/05/31 03:08:50;;;;;;;;;;;15.10;74.60;;;;;;4985717;28;19917;-71
2023/05/31 03:11:15;;;;;;;;;;;15.10;74.80;;;;;;4985894;28;19933;-71
2023/05/31 03:13:41;;;;;;;;;;;15.10;74.80;;;;;;4983949;28;20743;-72
2023/05/31 03:16:06;;;;;;;;;;;15.10;74.70;;;;;;4984469;28;19914;-71
2023/05/31 03:18:32;;;;;;;;;;;15.10;74.90;;;;;;4985660;28;19941;-71
2023/05/31 03:20:57;;;;;;;;;;;15.10;74.80;;;;;;4985951;28;20295;-72
2023/05/31 03:23:23;;;;;;;;;;;15.00;75.00;;;;;;5053902;28;19977;-71
2023/05/31 03:25:48;;;;;;;;;;;15.00;74.90;;;;;;5087827;28;19919;-71
2023/05/31 03:28:14;;;;;;;;;;;15.00;75.00;;;;;;5079645;28;19995;-71
2023/05/31 03:30:39;;;;;;;;;;;15.00;74.90;;;;;;5022892;28;19917;-71
2023/05/31 03:33:05;;;;;;;;;;;15.00;75.10;;;;;;5062419;28;19908;-71
2023/05/31 03:35:30;;;;;;;;;;;14.90;74.90;;;;;;5086587;28;20376;-71
2023/05/31 03:37:56;;;;;;;;;;;15.00;75.20;;;;;;5031644;28;20474;-72
2023/05/31 03:40:21;;;;;;;;;;;14.90;75.20;;;;;;5027365;28;20061;-71
2023/05/31 03:42:47;;;;;;;;;;;14.90;75.10;;;;;;5021405;28;19909;-71
2023/05/31 03:45:13;;;;;;;;;;;14.90;75.30;;;;;;4984302;28;19920;-71
2023/05/31 03:47:38;;;;;;;;;;;14.90;75.30;;;;;;4985530;28;20350;-71
2023/05/31 03:50:04;;;;;;;;;;;14.90;75.10;;;;;;4984516;28;19921;-71
2023/05/31 03:52:30;;;;;;;;;;;14.80;75.30;;;;;;4985338;28;19909;-71
2023/05/31 03:54:55;;;;;;;;;;;14.80;75.10;;;;;;4985478;28;19921;-71
2023/05/31 03:57:21;;;;;;;;;;;14.80;75.30;;;;;;4987579;28;19994;-72
2023/05/31 03:59:46;;;;;;;;;;;14.80;75.20;;;;;;5009038;28;19916;-71
2023/05/31 04:02:12;;;;;;;;;;;14.80;75.40;;;;;;5036626;28;20395;-72
2023/05/31 04:04:37;;;;;;;;;;;14.80;75.60;;;;;;4988674;28;19910;-71
2023/05/31 04:07:03;;;;;;;;;;;14.80;75.40;;;;;;4987375;28;19914;-71
2023/05/31 04:09:29;;;;;;;;;;;14.80;75.70;;;;;;4987051;28;20334;-71
2023/05/31 04:11:55;;;;;;;;;;;14.80;75.50;;;;;;4987046;28;19914;-72
2023/05/31 04:14:20;;;;;;;;;;;14.80;75.60;;;;;;4987144;28;20556;-71
2023/05/31 04:16:46;;;;;;;;;;;14.80;75.70;;;;;;4988647;28;20026;-72
2023/05/31 04:19:11;;;;;;;;;;;14.70;75.60;;;;;;4986962;28;19952;-71
2023/05/31 04:21:37;;;;;;;;;;;14.70;75.80;;;;;;4987041;28;19946;-71
2023/05/31 04:24:02;;;;;;;;;;;14.70;75.70;;;;;;4987912;28;20065;-71
2023/05/31 04:26:29;;;;;;;;;;;14.70;75.70;;;;;;4988560;28;19921;-72
2023/05/31 04:28:54;;;;;;;;;;;14.70;75.70;;;;;;4986874;28;19953;-71
2023/05/31 04:31:24;;;;;;;;;;;14.70;75.70;;;;;;5031888;28;20022;-71
2023/05/31 04:33:51;;;;;;;;;;;14.70;75.90;;;;;;5090456;28;19987;-71
2023/05/31 04:36:16;;;;;;;;;;;14.70;75.90;;;;;;5089241;28;19912;-71
2023/05/31 04:38:42;;;;;;;;;;;14.70;75.90;;;;;;5003153;28;19982;-71
2023/05/31 04:41:08;;;;;;;;;;;14.70;75.90;;;;;;4986777;28;19941;-71
2023/05/31 04:43:33;;;;;;;;;;;14.60;75.90;;;;;;4986527;28;19909;-71
2023/05/31 04:46:00;;;;;;;;;;;14.60;75.90;;;;;;4988179;28;19940;-72
2023/05/31 04:48:26;;;;;;;;;;;14.70;76.10;;;;;;4987916;28;19921;-71
2023/05/31 04:50:54;;;;;;;;;;;14.70;76.00;;;;;;4983102;28;20589;-71
2023/05/31 04:53:19;;;;;;;;;;;14.60;76.00;;;;;;4973109;28;19918;-72
2023/05/31 04:55:45;;;;;;;;;;;14.60;76.00;;;;;;5041745;28;19920;-71
2023/05/31 04:58:11;;;;;;;;;;;14.70;76.20;;;;;;5084127;28;19912;-71
2023/05/31 05:00:37;;;;;;;;;;;14.60;76.20;;;;;;4975648;28;20387;-71
2023/05/31 05:03:02;;;;;;;;;;;14.70;76.10;;;;;;4966785;28;19971;-72
2023/05/31 05:05:28;;;;;;;;;;;14.70;76.10;;;;;;4980729;28;19921;-71
2023/05/31 05:07:53;;;;;;;;;;;14.70;76.10;;;;;;4987410;28;19921;-71
2023/05/31 05:10:19;;;;;;;;;;;14.70;76.10;;;;;;4987244;28;19922;-71
2023/05/31 05:12:44;;;;;;;;;;;14.60;76.00;;;;;;4977247;28;19910;-71
2023/05/31 05:15:10;;;;;;;;;;;14.60;76.10;;;;;;4966842;28;19917;-71
2023/05/31 05:17:36;;;;;;;;;;;14.70;76.20;;;;;;4966947;28;20314;-71
2023/05/31 05:20:04;;;;;;;;;;;14.70;76.30;;;;;;4967933;28;19937;-71
2023/05/31 05:22:30;;;;;;;;;;;14.60;76.20;;;;;;4978911;28;19920;-71
2023/05/31 05:24:56;;;;;;;;;;;14.70;76.20;;;;;;4987358;28;20012;-71
2023/05/31 05:27:21;;;;;;;;;;;14.70;76.30;;;;;;4987369;28;20373;-72
2023/05/31 05:29:47;;;;;;;;;;;14.60;76.10;;;;;;4978618;28;19922;-71
2023/05/31 05:32:13;;;;;;;;;;;14.60;76.20;;;;;;4967744;28;20130;-71
2023/05/31 05:34:38;;;;;;;;;;;14.60;76.20;;;;;;4967809;28;19914;-71
2023/05/31 05:37:04;;;;;;;;;;;14.60;76.20;;;;;;4971102;28;20589;-71
2023/05/31 05:39:30;;;;;;;;;;;14.70;76.30;;;;;;4987159;28;19953;-71
2023/05/31 05:41:55;;;;;;;;;;;14.70;76.30;;;;;;4987102;28;20606;-71
2023/05/31 05:44:21;;;;;;;;;;;14.60;76.10;;;;;;4987288;28;19914;-71
2023/05/31 05:46:46;;;;;;;;;;;14.70;76.20;;;;;;4985970;28;19953;-71
2023/05/31 05:49:12;;;;;;;;;;;14.70;76.30;;;;;;4981556;28;20351;-72
2023/05/31 05:51:37;;;;;;;;;;;14.70;76.20;;;;;;4985185;28;19913;-71
2023/05/31 05:54:03;;;;;;;;;;;14.70;76.30;;;;;;4989013;28;19916;-71
2023/05/31 05:56:28;;;;;;;;;;;14.70;76.30;;;;;;5083575;28;19912;-71
2023/05/31 05:58:54;;;;;;;;;;;14.70;76.30;;;;;;5052967;28;19921;-71
2023/05/31 06:01:20;;;;;;;;;;;14.70;76.20;;;;;;4986912;28;19923;-71
2023/05/31 06:03:47;;;;;;;;;;;14.80;76.30;;;;;;4986649;28;19917;-71
2023/05/31 06:06:13;;;;;;;;;;;14.70;76.30;;;;;;4986974;28;19910;-71
2023/05/31 06:08:39;;;;;;;;;;;14.80;76.30;;;;;;4986815;28;19971;-71
2023/05/31 06:11:04;;;;;;;;;;;14.80;76.30;;;;;;4986914;28;19914;-71
2023/05/31 06:13:30;;;;;;;;;;;14.80;76.20;;;;;;4986902;28;19917;-71
2023/05/31 06:15:55;;;;;;;;;;;14.80;76.30;;;;;;4985659;28;19914;-71
2023/05/31 06:18:21;;;;;;;;;;;14.80;76.40;;;;;;4984473;28;19921;-71
2023/05/31 06:20:46;;;;;;;;;;;14.80;76.50;;;;;;4986446;28;20378;-71
2023/05/31 06:23:12;;;;;;;;;;;14.80;76.30;;;;;;4986250;28;19971;-71
2023/05/31 06:25:37;;;;;;;;;;;14.80;76.30;;;;;;4985016;28;19909;-71
2023/05/31 06:28:03;;;;;;;;;;;14.80;76.30;;;;;;4986680;28;19941;-72
2023/05/31 06:30:29;;;;;;;;;;;14.80;76.30;;;;;;4981579;28;20032;-71
2023/05/31 06:32:55;;;;;;;;;;;14.80;76.30;;;;;;4986498;28;20016;-71
2023/05/31 06:35:21;;;;;;;;;;;14.80;76.10;;;;;;4986481;28;19917;-71
2023/05/31 06:37:47;;;;;;;;;;;14.90;76.30;;;;;;4985216;28;19913;-71
2023/05/31 06:40:12;;;;;;;;;;;14.90;76.20;;;;;;4972504;28;19956;-71
2023/05/31 06:42:38;;;;;;;;;;;14.90;76.10;;;;;;4966725;28;19911;-71
2023/05/31 06:45:04;;;;;;;;;;;14.90;76.10;;;;;;4967046;28;20008;-71
2023/05/31 06:47:30;;;;;;;;;;;14.90;76.00;;;;;;4965645;28;19914;-71
2023/05/31 06:49:55;;;;;;;;;;;15.00;76.10;;;;;;4966588;28;19918;-72
2023/05/31 06:52:21;;;;;;;;;;;15.00;76.00;;;;;;4966496;28;20014;-71
2023/05/31 06:54:46;;;;;;;;;;;15.00;76.00;;;;;;4966751;28;19928;-71
2023/05/31 06:57:12;;;;;;;;;;;15.00;75.90;;;;;;4966968;28;19922;-71
2023/05/31 06:59:37;;;;;;;;;;;15.00;75.90;;;;;;4966996;28;19914;-71
2023/05/31 07:02:03;;;;;;;;;;;15.00;75.80;;;;;;4979755;28;19929;-71
2023/05/31 07:04:29;;;;;;;;;;;15.00;75.80;;;;;;4985925;28;19920;-71
2023/05/31 07:06:55;;;;;;;;;;;15.10;76.00;;;;;;4986019;28;19945;-71
2023/05/31 07:09:21;;;;;;;;;;;15.10;75.90;;;;;;4985780;28;19914;-71
2023/05/31 07:11:46;;;;;;;;;;;15.10;75.80;;;;;;4984366;28;19940;-71
2023/05/31 07:14:12;;;;;;;;;;;15.10;76.00;;;;;;4985997;28;19921;-71
2023/05/31 07:16:37;;;;;;;;;;;15.10;75.70;;;;;;4984672;28;19914;-71
2023/05/31 07:19:03;;;;;;;;;;;15.10;75.50;;;;;;4985794;28;19950;-71
2023/05/31 07:21:29;;;;;;;;;;;15.10;75.60;;;;;;4984684;28;19914;-71
2023/05/31 07:23:55;;;;;;;;;;;15.20;75.50;;;;;;4983707;28;19922;-71
2023/05/31 07:26:21;;;;;;;;;;;15.20;75.70;;;;;;4985938;28;19909;-71
2023/05/31 07:28:46;;;;;;;;;;;15.20;75.40;;;;;;4985851;28;19952;-71
2023/05/31 07:31:12;;;;;;;;;;;15.20;75.30;;;;;;4987533;28;19918;-71
2023/05/31 07:33:38;;;;;;;;;;;15.20;75.20;;;;;;4988801;28;19920;-71
2023/05/31 07:36:03;;;;;;;;;;;15.20;75.20;;;;;;4989102;28;19910;-71
2023/05/31 07:38:29;;;;;;;;;;;15.30;75.30;;;;;;4989115;28;19945;-71
2023/05/31 07:40:55;;;;;;;;;;;15.30;75.20;;;;;;4989076;28;20012;-71
2023/05/31 07:43:20;;;;;;;;;;;15.30;75.10;;;;;;4987434;28;20006;-71
2023/05/31 07:45:47;;;;;;;;;;;15.30;75.10;;;;;;4989035;28;19914;-71
2023/05/31 07:48:12;;;;;;;;;;;15.40;75.00;;;;;;4988990;28;19921;-71
2023/05/31 07:50:38;;;;;;;;;;;15.30;74.80;;;;;;4988637;28;19913;-71
2023/05/31 07:53:03;;;;;;;;;;;15.40;74.80;;;;;;4988862;28;19917;-71
2023/05/31 07:55:28;;;;;;;;;;;15.40;74.80;;;;;;4988752;28;20270;-71
2023/05/31 07:57:54;;;;;;;;;;;15.40;74.80;;;;;;4988949;28;19921;-71
2023/05/31 08:00:20;;;;;;;;;;;15.50;74.80;;;;;;4988832;28;20059;-71
2023/05/31 08:02:46;;;;;;;;;;;15.50;74.70;;;;;;5007480;28;19916;-71
2023/05/31 08:05:12;;;;;;;;;;;15.50;74.70;;;;;;5027076;28;19914;-71
2023/05/31 08:07:37;;;;;;;;;;;15.50;74.60;;;;;;4988830;28;19921;-71
2023/05/31 08:10:03;;;;;;;;;;;15.50;74.60;;;;;;4988801;28;20293;-71
2023/05/31 08:12:29;;;;;;;;;;;15.60;74.80;;;;;;4988721;28;19917;-71
2023/05/31 08:14:55;;;;;;;;;;;15.60;74.70;;;;;;4988562;28;19921;-71
2023/05/31 08:17:20;;;;;;;;;;;15.60;74.40;;;;;;4988547;28;19913;-71
2023/05/31 08:19:46;;;;;;;;;;;15.60;74.40;;;;;;4988356;28;19951;-71
2023/05/31 08:22:11;;;;;;;;;;;15.70;74.20;;;;;;4988240;28;19925;-71
2023/05/31 08:24:37;;;;;;;;;;;15.70;74.10;;;;;;4987120;28;19970;-71
2023/05/31 08:27:02;;;;;;;;;;;15.70;74.10;;;;;;4988731;28;19913;-71
2023/05/31 08:29:28;;;;;;;;;;;15.70;74.10;;;;;;4983721;28;19921;-71
2023/05/31 08:31:53;;;;;;;;;;;15.80;73.90;;;;;;4987649;28;19922;-71
2023/05/31 08:34:19;;;;;;;;;;;15.80;73.90;;;;;;4988032;28;20404;-71
2023/05/31 08:36:44;;;;;;;;;;;15.80;74.10;;;;;;4988460;28;20012;-71
2023/05/31 08:39:10;;;;;;;;;;;15.80;73.90;;;;;;4988392;28;19917;-71
2023/05/31 08:41:47;;;;;;;;;;;15.80;73.90;;;;;;4987918;28;19940;-71
2023/05/31 08:44:14;;;;;;;;;;;15.90;73.70;;;;;;4988362;28;19918;-71
2023/05/31 08:46:40;;;;;;;;;;;15.90;73.80;;;;;;4988222;28;19910;-71
2023/05/31 08:49:10;;;;;;;;;;;15.90;73.60;;;;;;4987962;28;19921;-71
2023/05/31 08:51:36;;;;;;;;;;;16.00;73.80;;;;;;4986637;28;19925;-71
2023/05/31 08:54:02;;;;;;;;;;;16.00;73.70;;;;;;4987970;28;20505;-71
2023/05/31 08:56:28;;;;;;;;;;;16.10;73.50;;;;;;4988057;28;19914;-71
2023/05/31 08:58:53;;;;;;;;;;;16.20;73.40;;;;;;4987898;28;19961;-71
2023/05/31 09:01:20;;;;;;;;;;;16.20;73.30;;;;;;4987678;28;19910;-71
2023/05/31 09:03:45;;;;;;;;;;;16.20;73.30;;;;;;4987301;28;20590;-71
2023/05/31 09:06:11;;;;;;;;;;;16.20;73.00;;;;;;4986337;28;20004;-71
2023/05/31 09:08:37;;;;;;;;;;;16.30;73.00;;;;;;4987778;28;20070;-71
2023/05/31 09:11:03;;;;;;;;;;;16.30;72.80;;;;;;4986316;28;19925;-71
2023/05/31 09:13:28;;;;;;;;;;;16.40;73.00;;;;;;4987680;28;19918;-71
2023/05/31 09:15:54;;;;;;;;;;;16.40;72.90;;;;;;4987732;28;20445;-71
2023/05/31 09:18:20;;;;;;;;;;;16.40;72.90;;;;;;4987731;28;19914;-71
2023/05/31 09:20:46;;;;;;;;;;;16.50;72.80;;;;;;4987373;28;19914;-71
2023/05/31 09:23:12;;;;;;;;;;;16.50;72.60;;;;;;4987440;28;19921;-71
2023/05/31 09:25:48;;;;;;;;;;;16.70;72.50;;;;;;4987360;28;19913;-71
2023/05/31 09:28:13;;;;;;;;;;;16.70;72.70;;;;;;4987670;28;19968;-71
2023/05/31 09:30:40;;;;;;;;;;;16.70;72.30;;;;;;4985499;28;19945;-71
2023/05/31 09:33:06;;;;;;;;;;;16.80;72.40;;;;;;4987023;28;19956;-71
2023/05/31 09:35:31;;;;;;;;;;;16.80;72.50;;;;;;4986068;28;19941;-71
2023/05/31 09:37:57;;;;;;;;;;;16.80;72.30;;;;;;4986198;28;20448;-71
2023/05/31 09:40:26;;;;;;;;;;;16.90;72.20;;;;;;4987147;28;20005;-71
2023/05/31 09:42:53;;;;;;;;;;;17.00;72.20;;;;;;4986971;28;19913;-71
2023/05/31 09:45:19;;;;;;;;;;;17.00;72.00;;;;;;4987300;28;19914;-71
2023/05/31 09:47:45;;;;;;;;;;;17.10;72.30;;;;;;4985870;28;19914;-70
2023/05/31 09:50:11;;;;;;;;;;;17.10;71.80;;;;;;4987031;28;19918;-71
2023/05/31 09:52:38;;;;;;;;;;;17.20;71.80;;;;;;4984897;28;20263;-71
2023/05/31 09:55:08;;;;;;;;;;;17.30;71.90;;;;;;4987090;28;20000;-71
2023/05/31 09:57:40;;;;;;;;;;;17.40;71.70;;;;;;4987375;28;19980;-71
2023/05/31 10:00:14;;;;;;;;;;;17.40;71.60;;;;;;4987031;28;19913;-71
2023/05/31 10:02:44;;;;;;;;;;;17.50;71.50;;;;;;4967452;28;20371;-71
2023/05/31 10:05:11;;;;;;;;;;;17.50;71.60;;;;;;4979339;28;20297;-71
2023/05/31 10:07:38;;;;;;;;;;;17.70;71.40;;;;;;4987173;28;19918;-71
2023/05/31 10:10:04;;;;;;;;;;;17.70;71.20;;;;;;5016212;28;19971;-71
2023/05/31 10:12:31;;;;;;;;;;;17.80;71.30;;;;;;4987121;28;19953;-71
2023/05/31 10:15:06;;;;;;;;;;;17.80;71.10;;;;;;4987050;28;19995;-71
2023/05/31 10:17:34;;;;;;;;;;;17.90;71.20;;;;;;4986853;28;19913;-71
2023/05/31 10:20:04;;;;;;;;;;;18.00;71.40;;;;;;4986791;28;19914;-71
2023/05/31 10:22:31;;;;;;;;;;;18.10;71.30;;;;;;4986780;28;19941;-71
2023/05/31 10:25:17;;;;;;;;;;;18.20;71.40;;;;;;4985507;28;19913;-71
2023/05/31 10:27:44;;;;;;;;;;;18.20;71.40;;;;;;4978273;28;19913;-70
2023/05/31 10:30:10;;;;;;;;;;;18.30;71.60;;;;;;4981839;28;19917;-71
2023/05/31 10:32:59;;;;;;;;;;;18.50;71.70;;;;;;4986295;28;19956;-70
2023/05/31 10:35:25;;;;;;;;;;;18.50;71.50;;;;;;4993850;28;19968;-71
2023/05/31 10:37:53;;;;;;;;;;;18.60;71.30;;;;;;4986859;28;19956;-71
2023/05/31 10:40:21;;;;;;;;;;;18.70;70.70;;;;;;4985140;28;19930;-71
2023/05/31 10:43:05;;;;;;;;;;;18.80;71.40;;;;;;4986489;28;20272;-71
2023/05/31 10:45:50;;;;;;;;;;;18.90;70.60;;;;;;4986384;28;19921;-70
2023/05/31 10:48:21;;;;;;;;;;;19.00;71.50;;;;;;4986539;28;20005;-71
2023/05/31 10:50:56;;;;;;;;;;;19.10;71.50;;;;;;4985396;28;19920;-71
2023/05/31 10:53:23;;;;;;;;;;;19.20;71.30;;;;;;4977679;28;19914;-70
2023/05/31 10:55:49;;;;;;;;;;;19.40;71.60;;;;;;5003645;28;20612;-71
2023/05/31 10:58:29;;;;;;;;;;;19.50;71.30;;;;;;5062591;28;19915;-70
2023/05/31 11:01:02;;;;;;;;;;;19.70;71.30;;;;;;4986110;28;19932;-70
2023/05/31 11:03:29;;;;;;;;;;;19.80;71.20;;;;;;4985953;28;19914;-71
2023/05/31 11:05:55;;;;;;;;;;;19.90;71.20;;;;;;5076107;28;19959;-70
2023/05/31 11:08:21;;;;;;;;;;;20.10;70.80;;;;;;5020314;28;19913;-70
2023/05/31 11:10:48;;;;;;;;;;;20.20;71.30;;;;;;4989206;28;19953;-70
2023/05/31 11:13:13;;;;;;;;;;;20.30;71.50;;;;;;4978049;28;19949;-70
2023/05/31 11:15:43;;;;;;;;;;;20.40;71.60;;;;;;4969854;28;20375;-70
2023/05/31 11:18:09;;;;;;;;;;;20.50;71.40;;;;;;4968716;28;20005;-70
2023/05/31 11:20:38;;;;;;;;;;;20.60;71.30;;;;;;4969861;28;19933;-71
2023/05/31 11:23:19;;;;;;;;;;;20.70;71.10;;;;;;4968474;28;19933;-71
2023/05/31 11:26:03;;;;;;;;;;;20.80;70.90;;;;;;4969839;28;20268;-70
2023/05/31 11:28:29;;;;;;;;;;;21.00;71.00;;;;;;4973089;28;19967;-71
2023/05/31 11:30:55;;;;;;;;;;;21.10;71.10;;;;;;4970033;28;19918;-70
2023/05/31 11:33:22;;;;;;;;;;;21.20;71.00;;;;;;4969494;28;20047;-71
2023/05/31 11:35:47;;;;;;;;;;;21.30;70.80;;;;;;4969514;28;19937;-70
2023/05/31 11:38:13;;;;;;;;;;;21.40;70.40;;;;;;4982264;28;19914;-70
2023/05/31 11:40:38;;;;;;;;;;;21.50;70.80;;;;;;4988352;28;19916;-70
2023/05/31 11:43:06;;;;;;;;;;;21.60;70.80;;;;;;4987511;28;19917;-70
2023/05/31 11:45:33;;;;;;;;;;;21.70;70.70;;;;;;4989056;28;19917;-71
2023/05/31 11:48:07;;;;;;;;;;;21.70;70.80;;;;;;4987873;28;20046;-70
2023/05/31 11:50:33;;;;;;;;;;;21.80;70.80;;;;;;4987101;28;19913;-70
2023/05/31 11:53:02;;;;;;;;;;;21.90;70.90;;;;;;4988772;28;20489;-70
2023/05/31 11:55:36;;;;;;;;;;;21.90;70.70;;;;;;4988811;28;19966;-70
2023/05/31 11:58:04;;;;;;;;;;;22.00;69.90;;;;;;4987458;28;19918;-70
2023/05/31 12:00:31;;;;;;;;;;;22.10;70.60;;;;;;4969282;28;20383;-70
2023/05/31 12:02:57;;;;;;;;;;;22.20;70.50;;;;;;4969172;28;19921;-70
2023/05/31 12:05:23;;;;;;;;;;;22.30;70.10;;;;;;4982190;28;19909;-70
2023/05/31 12:07:52;;;;;;;;;;;22.50;69.60;;;;;;4988372;28;20378;-70
2023/05/31 12:10:17;;;;;;;;;;;22.50;70.30;;;;;;5022039;28;20699;-70
2023/05/31 12:12:45;;;;;;;;;;;22.50;70.00;;;;;;5090625;28;19916;-70
2023/05/31 12:15:12;;;;;;;;;;;22.60;69.80;;;;;;5090097;28;19971;-70
2023/05/31 12:17:38;;;;;;;;;;;22.70;70.20;;;;;;5089756;28;19912;-70
2023/05/31 12:20:05;;;;;;;;;;;22.80;70.20;;;;;;5090494;28;19955;-70
2023/05/31 12:22:30;;;;;;;;;;;22.80;70.30;;;;;;5090279;28;19920;-70
2023/05/31 12:24:56;;;;;;;;;;;22.80;70.40;;;;;;5090652;28;19912;-70
2023/05/31 12:27:22;;;;;;;;;;;22.90;70.40;;;;;;5090113;28;19916;-70
2023/05/31 12:29:48;;;;;;;;;;;22.90;70.50;;;;;;5017063;28;19946;-71
2023/05/31 12:32:16;;;;;;;;;;;23.00;70.40;;;;;;4987673;28;19966;-70
2023/05/31 12:34:42;;;;;;;;;;;23.10;70.10;;;;;;4988203;28;20396;-70
2023/05/31 12:37:09;;;;;;;;;;;23.20;70.30;;;;;;4986905;28;19940;-71
2023/05/31 12:39:35;;;;;;;;;;;23.20;70.10;;;;;;4988148;28;20385;-70
2023/05/31 12:42:01;;;;;;;;;;;23.20;70.00;;;;;;4986871;28;19934;-71
2023/05/31 12:44:27;;;;;;;;;;;23.40;70.30;;;;;;4987950;28;19914;-71
2023/05/31 12:46:59;;;;;;;;;;;23.40;70.10;;;;;;4987707;28;20271;-71
2023/05/31 12:49:27;;;;;;;;;;;23.50;69.80;;;;;;4987915;28;20173;-70
2023/05/31 12:52:20;;;;;;;;;;;23.60;70.10;;;;;;4987801;28;19967;-70
2023/05/31 12:54:45;;;;;;;;;;;23.60;69.90;;;;;;4984300;28;19910;-70
2023/05/31 12:57:11;;;;;;;;;;;23.70;69.90;;;;;;4987669;28;19920;-71
2023/05/31 12:59:37;;;;;;;;;;;23.70;70.00;;;;;;4981253;28;20465;-71
2023/05/31 13:02:04;;;;;;;;;;;23.80;70.10;;;;;;4991793;28;19958;-70
2023/05/31 13:04:29;;;;;;;;;;;23.90;69.90;;;;;;4999165;28;19932;-71
2023/05/31 13:06:58;;;;;;;;;;;23.90;69.90;;;;;;4987864;28;20488;-71
2023/05/31 13:09:24;;;;;;;;;;;24.00;69.80;;;;;;4987656;28;19910;-70
2023/05/31 13:11:51;;;;;;;;;;;24.10;69.50;;;;;;4987511;28;19925;-70
2023/05/31 13:14:18;;;;;;;;;;;24.10;69.60;;;;;;4986411;28;20251;-70
2023/05/31 13:16:44;;;;;;;;;;;24.20;69.70;;;;;;4987809;28;20293;-71
2023/05/31 13:19:10;;;;;;;;;;;24.20;69.60;;;;;;4987586;28;20262;-70
2023/05/31 13:21:35;;;;;;;;;;;24.30;69.40;;;;;;4987678;28;19910;-70
2023/05/31 13:24:01;;;;;;;;;;;24.40;69.00;;;;;;4985824;28;19921;-70
2023/05/31 13:26:27;;;;;;;;;;;24.30;69.10;;;;;;4987533;28;20366;-71
2023/05/31 13:28:54;;;;;;;;;;;24.40;69.30;;;;;;4985910;28;20418;-70
2023/05/31 13:31:21;;;;;;;;;;;24.40;69.40;;;;;;4983571;28;20394;-70
2023/05/31 13:33:47;;;;;;;;;;;24.40;69.40;;;;;;4987203;28;20676;-70
2023/05/31 13:36:13;;;;;;;;;;;24.50;69.70;;;;;;4985746;28;19913;-70
2023/05/31 13:38:39;;;;;;;;;;;24.50;69.50;;;;;;4969698;28;20015;-70
2023/05/31 13:41:05;;;;;;;;;;;24.60;69.30;;;;;;4987075;28;19961;-71
2023/05/31 13:43:31;;;;;;;;;;;24.60;68.60;;;;;;4985756;28;19914;-70
2023/05/31 13:45:57;;;;;;;;;;;24.70;68.20;;;;;;4987200;28;19921;-70
2023/05/31 13:48:23;;;;;;;;;;;24.80;68.10;;;;;;4986691;28;19917;-71
2023/05/31 13:50:48;;;;;;;;;;;24.90;68.00;;;;;;5070153;28;19916;-70
2023/05/31 13:53:14;;;;;;;;;;;25.00;68.10;;;;;;5087219;28;19912;-71
2023/05/31 13:55:39;;;;;;;;;;;25.00;67.70;;;;;;5088168;28;19919;-71
2023/05/31 13:58:05;;;;;;;;;;;25.10;67.60;;;;;;5053803;28;19913;-71
2023/05/31 14:00:31;;;;;;;;;;;25.20;67.60;;;;;;4981822;28;19914;-70
2023/05/31 14:02:57;;;;;;;;;;;25.20;67.20;;;;;;5057841;28;19919;-70
2023/05/31 14:05:22;;;;;;;;;;;25.20;66.90;;;;;;5017795;28;19939;-70
2023/05/31 14:07:49;;;;;;;;;;;25.30;66.80;;;;;;4985358;28;19994;-71
2023/05/31 14:10:15;;;;;;;;;;;25.30;66.50;;;;;;4986435;28;20561;-71
2023/05/31 14:12:40;;;;;;;;;;;25.40;66.50;;;;;;4986741;28;20050;-70